Time;durP1;ratioP1;P1;durP2;ratioP2;P2;SDS_P1;SDS_P2;PMS_P1;PMS_P2;Temp;Humidity;BMP_temperature;BMP_pressure;BME280_temperature;BME280_humidity;BME280_pressure;Samples;Min_cycle;Max_cycle;Signal;HPM_P1;HPM_P2
2022/11/07 00:01:17;;;;;;;42.58;7.30;;;;;;;;;;4968668;28;20186;-82
2022/11/07 00:03:43;;;;;;;34.80;6.72;;;;;;;;;;4978814;28;20119;-83
2022/11/07 00:06:09;;;;;;;32.67;6.28;;;;;;;;;;4990399;28;20450;-84
2022/11/07 00:08:38;;;;;;;28.35;5.32;;;;;;;;;;4953842;28;20037;-78
2022/11/07 00:11:04;;;;;;;29.42;5.72;;;;;;;;;;4964026;28;20100;-78
2022/11/07 00:13:30;;;;;;;48.75;8.20;;;;;;;;;;4968791;28;20030;-82
2022/11/07 00:15:59;;;;;;;38.65;6.13;;;;;;;;;;4984942;28;20048;-86
2022/11/07 00:18:26;;;;;;;32.55;6.13;;;;;;;;;;4977854;28;22037;-81
2022/11/07 00:20:51;;;;;;;30.73;5.50;;;;;;;;;;4981580;28;20120;-87
2022/11/07 00:23:19;;;;;;;38.70;6.03;;;;;;;;;;4972793;28;20061;-87
2022/11/07 00:25:47;;;;;;;28.40;5.60;;;;;;;;;;4986971;28;20628;-85
2022/11/07 00:28:12;;;;;;;35.42;5.72;;;;;;;;;;4988737;28;20033;-84
2022/11/07 00:30:40;;;;;;;29.67;5.10;;;;;;;;;;4980574;28;20735;-79
2022/11/07 00:33:06;;;;;;;33.45;5.85;;;;;;;;;;4967090;28;20045;-78
2022/11/07 00:35:31;;;;;;;47.22;7.65;;;;;;;;;;4961731;28;20029;-78
2022/11/07 00:37:59;;;;;;;52.88;8.20;;;;;;;;;;4938859;28;20030;-79
2022/11/07 00:40:25;;;;;;;46.75;8.30;;;;;;;;;;4947372;28;20323;-76
2022/11/07 00:42:54;;;;;;;26.60;4.97;;;;;;;;;;4930236;28;20041;-79
2022/11/07 00:45:19;;;;;;;41.60;5.95;;;;;;;;;;4961525;28;20054;-79
2022/11/07 00:47:45;;;;;;;38.35;5.30;;;;;;;;;;4941568;28;20045;-79
2022/11/07 00:50:18;;;;;;;42.67;5.90;;;;;;;;;;4967031;28;20033;-83
2022/11/07 00:52:50;;;;;;;51.70;8.80;;;;;;;;;;4960110;28;20523;-83
2022/11/07 00:55:18;;;;;;;50.25;7.68;;;;;;;;;;4970087;28;20084;-88
2022/11/07 00:57:44;;;;;;;35.97;6.45;;;;;;;;;;4975527;28;20435;-87
2022/11/07 01:00:10;;;;;;;53.45;7.78;;;;;;;;;;4968994;28;20038;-84
2022/11/07 01:02:38;;;;;;;34.42;6.53;;;;;;;;;;4980740;28;20077;-85
2022/11/07 01:05:10;;;;;;;38.63;7.10;;;;;;;;;;4961895;28;20250;-88
2022/11/07 01:07:36;;;;;;;38.63;7.25;;;;;;;;;;4969624;28;20193;-79
2022/11/07 01:10:06;;;;;;;31.08;5.65;;;;;;;;;;4964280;28;20046;-79
2022/11/07 01:12:34;;;;;;;35.80;4.82;;;;;;;;;;4961025;28;20507;-79
2022/11/07 01:15:03;;;;;;;42.60;6.82;;;;;;;;;;4961793;28;20097;-78
2022/11/07 01:17:28;;;;;;;41.75;7.25;;;;;;;;;;4950530;28;20582;-78
2022/11/07 01:19:54;;;;;;;44.95;6.78;;;;;;;;;;4946665;28;20187;-78
2022/11/07 01:22:20;;;;;;;31.60;5.22;;;;;;;;;;4938217;28;20586;-78
2022/11/07 01:24:46;;;;;;;37.63;5.45;;;;;;;;;;4947538;28;20050;-79
2022/11/07 01:27:14;;;;;;;32.03;5.30;;;;;;;;;;4972733;28;20552;-83
2022/11/07 01:29:39;;;;;;;26.75;4.43;;;;;;;;;;4942728;28;20026;-82
2022/11/07 01:32:11;;;;;;;32.53;5.38;;;;;;;;;;4962789;28;20034;-87
2022/11/07 01:34:36;;;;;;;43.78;6.93;;;;;;;;;;4924540;28;20538;-89
2022/11/07 01:37:04;;;;;;;32.22;5.75;;;;;;;;;;4961150;28;20103;-88
2022/11/07 01:39:30;;;;;;;31.02;5.40;;;;;;;;;;4970385;28;20882;-87
2022/11/07 01:41:58;;;;;;;29.45;4.47;;;;;;;;;;4990259;28;20038;-86
2022/11/07 01:44:24;;;;;;;25.50;4.60;;;;;;;;;;4984509;28;20200;-87
2022/11/07 01:46:54;;;;;;;23.30;4.20;;;;;;;;;;4968644;28;20034;-79
2022/11/07 01:49:22;;;;;;;28.90;4.78;;;;;;;;;;4911602;28;20046;-80
2022/11/07 01:51:51;;;;;;;29.70;4.57;;;;;;;;;;4958475;28;20046;-79
2022/11/07 01:54:19;;;;;;;31.17;4.38;;;;;;;;;;4931958;28;20033;-78
2022/11/07 01:56:47;;;;;;;23.80;4.53;;;;;;;;;;4935649;28;20072;-79
2022/11/07 01:59:17;;;;;;;33.85;5.30;;;;;;;;;;4955108;28;20034;-79
2022/11/07 02:01:42;;;;;;;28.73;4.97;;;;;;;;;;4954591;28;20065;-79
2022/11/07 02:04:12;;;;;;;29.05;4.95;;;;;;;;;;4951212;28;20561;-78
2022/11/07 02:06:40;;;;;;;28.75;5.55;;;;;;;;;;4926736;28;20283;-76
2022/11/07 02:09:06;;;;;;;38.00;6.07;;;;;;;;;;4941880;28;20265;-80
2022/11/07 02:11:37;;;;;;;45.40;7.40;;;;;;;;;;4933237;28;20273;-76
2022/11/07 02:14:02;;;;;;;33.50;5.32;;;;;;;;;;4954098;28;20042;-76
2022/11/07 02:16:28;;;;;;;35.08;6.63;;;;;;;;;;4962592;28;20572;-78
2022/11/07 02:18:54;;;;;;;37.97;6.07;;;;;;;;;;4911068;28;20129;-78
2022/11/07 02:21:26;;;;;;;30.85;5.43;;;;;;;;;;4926773;28;20034;-78
2022/11/07 02:24:00;;;;;;;29.88;6.32;;;;;;;;;;4911236;28;20791;-78
2022/11/07 02:26:26;;;;;;;32.08;4.22;;;;;;;;;;4950423;28;20758;-78
2022/11/07 02:28:53;;;;;;;20.65;4.13;;;;;;;;;;4959617;28;20041;-78
2022/11/07 02:31:22;;;;;;;21.45;4.25;;;;;;;;;;4962322;28;20654;-79
2022/11/07 02:33:50;;;;;;;26.55;5.32;;;;;;;;;;4930256;28;20039;-77
2022/11/07 02:36:18;;;;;;;34.67;8.55;;;;;;;;;;4964741;28;20038;-77
2022/11/07 02:38:44;;;;;;;31.92;7.22;;;;;;;;;;4939052;28;20041;-79
2022/11/07 02:41:15;;;;;;;31.95;9.30;;;;;;;;;;4967946;28;20149;-78
2022/11/07 02:43:44;;;;;;;23.73;4.50;;;;;;;;;;4937343;28;20545;-77
2022/11/07 02:46:11;;;;;;;27.40;5.00;;;;;;;;;;4956365;28;20136;-78
2022/11/07 02:48:45;;;;;;;27.25;4.88;;;;;;;;;;4961837;28;20616;-78
2022/11/07 02:51:17;;;;;;;32.78;5.45;;;;;;;;;;4968594;28;20038;-75
2022/11/07 02:53:45;;;;;;;23.58;4.75;;;;;;;;;;4968986;28;20518;-77
2022/11/07 02:56:10;;;;;;;25.33;4.28;;;;;;;;;;4964177;28;20502;-77
2022/11/07 02:58:36;;;;;;;35.20;5.95;;;;;;;;;;4950184;28;20045;-77
2022/11/07 03:01:11;;;;;;;31.60;5.53;;;;;;;;;;4968888;28;20136;-77
2022/11/07 03:03:44;;;;;;;32.60;6.65;;;;;;;;;;4940597;28;20049;-77
2022/11/07 03:06:10;;;;;;;32.78;5.97;;;;;;;;;;4939410;28;20327;-78
2022/11/07 03:08:35;;;;;;;27.35;5.10;;;;;;;;;;4931095;28;20088;-77
2022/11/07 03:11:01;;;;;;;24.27;5.15;;;;;;;;;;4919052;28;20578;-78
2022/11/07 03:13:26;;;;;;;26.50;5.18;;;;;;;;;;4902174;28;20280;-78
2022/11/07 03:15:52;;;;;;;25.25;4.38;;;;;;;;;;4942837;28;20077;-85
2022/11/07 03:18:20;;;;;;;25.20;5.07;;;;;;;;;;4938062;28;20185;-80
2022/11/07 03:20:46;;;;;;;28.95;4.40;;;;;;;;;;4936654;28;20344;-81
2022/11/07 03:23:16;;;;;;;32.10;4.38;;;;;;;;;;4951753;28;20526;-81
2022/11/07 03:25:53;;;;;;;28.48;4.95;;;;;;;;;;4921699;28;20066;-84
2022/11/07 03:28:21;;;;;;;23.98;5.20;;;;;;;;;;4955363;28;20048;-84
2022/11/07 03:30:47;;;;;;;25.10;6.93;;;;;;;;;;4908391;28;20145;-76
2022/11/07 03:33:12;;;;;;;30.02;5.47;;;;;;;;;;4921622;28;20042;-83
2022/11/07 03:35:38;;;;;;;30.52;5.32;;;;;;;;;;4950839;28;20539;-86
2022/11/07 03:38:05;;;;;;;23.33;4.47;;;;;;;;;;4931122;28;20049;-83
2022/11/07 03:40:31;;;;;;;28.58;6.50;;;;;;;;;;4945259;28;20026;-86
2022/11/07 03:42:56;;;;;;;29.60;8.27;;;;;;;;;;4914995;28;20047;-82
2022/11/07 03:45:21;;;;;;;30.30;6.20;;;;;;;;;;4921918;28;20038;-83
2022/11/07 03:47:54;;;;;;;27.52;7.55;;;;;;;;;;4946786;28;20454;-84
2022/11/07 03:50:21;;;;;;;33.47;6.28;;;;;;;;;;4916451;28;20034;-88
2022/11/07 03:52:49;;;;;;;29.08;8.15;;;;;;;;;;4927859;28;20252;-85
2022/11/07 03:55:16;;;;;;;40.13;11.32;;;;;;;;;;4941136;28;20204;-81
2022/11/07 03:57:48;;;;;;;34.15;9.02;;;;;;;;;;4929998;28;20039;-84
2022/11/07 04:00:20;;;;;;;46.58;11.95;;;;;;;;;;4917483;28;20510;-87
2022/11/07 04:02:48;;;;;;;36.10;10.20;;;;;;;;;;4939912;28;20041;-89
2022/11/07 04:05:13;;;;;;;34.47;9.10;;;;;;;;;;4937973;28;20042;-87
2022/11/07 04:07:41;;;;;;;24.77;7.82;;;;;;;;;;4929824;28;20073;-86
2022/11/07 04:10:07;;;;;;;34.97;11.98;;;;;;;;;;4942242;28;20034;-81
2022/11/07 04:18:07;;;;;;;31.20;9.00;;;;;;;;;;4923516;28;20035;-80
2022/11/07 04:20:32;;;;;;;38.60;10.93;;;;;;;;;;4906715;28;20061;-79
2022/11/07 04:22:58;;;;;;;40.33;9.48;;;;;;;;;;4918958;28;20382;-82
2022/11/07 04:28:15;;;;;;;46.05;6.70;;;;;;;;;;4900668;28;20079;-78
2022/11/07 04:30:40;;;;;;;36.97;5.07;;;;;;;;;;4919621;28;20550;-74
2022/11/07 04:33:08;;;;;;;36.03;8.75;;;;;;;;;;4939301;28;20132;-76
2022/11/07 04:35:33;;;;;;;30.90;6.47;;;;;;;;;;4929914;28;20065;-76
2022/11/07 04:37:59;;;;;;;38.22;8.38;;;;;;;;;;4941346;28;20087;-78
2022/11/07 04:40:30;;;;;;;34.20;8.82;;;;;;;;;;4916494;28;20129;-79
2022/11/07 04:42:58;;;;;;;28.10;7.78;;;;;;;;;;4865785;28;20496;-77
2022/11/07 04:45:24;;;;;;;25.50;7.53;;;;;;;;;;4902231;28;20140;-79
2022/11/07 04:47:50;;;;;;;33.38;8.52;;;;;;;;;;4887582;28;20458;-78
2022/11/07 04:50:19;;;;;;;28.17;7.00;;;;;;;;;;4916653;28;20755;-79
2022/11/07 04:52:45;;;;;;;38.35;10.23;;;;;;;;;;4924720;28;20259;-78
2022/11/07 04:55:16;;;;;;;36.35;8.40;;;;;;;;;;4918154;28;20038;-78
2022/11/07 04:57:44;;;;;;;35.85;8.70;;;;;;;;;;4912969;28;20074;-79
2022/11/07 05:00:10;;;;;;;37.28;8.45;;;;;;;;;;4879578;28;20454;-79
2022/11/07 05:02:35;;;;;;;26.30;6.57;;;;;;;;;;4916215;28;20151;-78
2022/11/07 05:05:04;;;;;;;35.58;10.57;;;;;;;;;;4961136;28;20061;-77
2022/11/07 05:07:32;;;;;;;31.50;6.63;;;;;;;;;;4959146;28;20486;-78
2022/11/07 05:09:59;;;;;;;26.85;4.82;;;;;;;;;;4947082;28;20303;-79
2022/11/07 05:12:24;;;;;;;34.45;6.85;;;;;;;;;;4949734;28;20030;-78
2022/11/07 05:14:50;;;;;;;37.13;5.38;;;;;;;;;;4948820;28;20290;-78
2022/11/07 05:17:16;;;;;;;39.92;6.32;;;;;;;;;;4943589;28;20095;-78
2022/11/07 05:19:46;;;;;;;31.88;7.28;;;;;;;;;;4956769;28;22252;-79
2022/11/07 05:24:59;;;;;;;33.90;8.30;;;;;;;;;;4943440;28;20254;-85
2022/11/07 05:27:27;;;;;;;38.15;10.63;;;;;;;;;;4968843;28;20333;-82
2022/11/07 05:29:53;;;;;;;47.42;10.50;;;;;;;;;;4934268;28;20041;-80
2022/11/07 05:32:18;;;;;;;50.95;9.27;;;;;;;;;;4947829;28;20467;-85
2022/11/07 05:34:47;;;;;;;40.80;7.75;;;;;;;;;;4940959;28;20036;-88
2022/11/07 05:37:15;;;;;;;42.95;9.40;;;;;;;;;;4942380;28;20155;-84
2022/11/07 05:39:44;;;;;;;31.25;8.20;;;;;;;;;;4951562;28;20483;-84
2022/11/07 05:42:10;;;;;;;27.00;7.45;;;;;;;;;;4965214;28;20457;-84
2022/11/07 05:44:35;;;;;;;39.85;10.38;;;;;;;;;;4944301;28;20065;-84
2022/11/07 05:47:06;;;;;;;28.67;8.43;;;;;;;;;;4961787;28;20118;-85
2022/11/07 05:49:31;;;;;;;29.25;6.50;;;;;;;;;;4945509;28;20356;-85
2022/11/07 05:51:59;;;;;;;26.88;6.22;;;;;;;;;;4943112;28;20088;-84
2022/11/07 05:54:26;;;;;;;31.60;6.70;;;;;;;;;;4938787;28;20034;-84
2022/11/07 05:56:56;;;;;;;33.78;8.68;;;;;;;;;;4970970;28;20033;-83
2022/11/07 05:59:21;;;;;;;43.97;11.05;;;;;;;;;;4947812;28;20486;-80
2022/11/07 06:01:47;;;;;;;32.17;7.50;;;;;;;;;;4977278;28;20037;-86
2022/11/07 06:04:12;;;;;;;25.30;5.93;;;;;;;;;;4962625;28;20548;-78
2022/11/07 06:06:38;;;;;;;29.83;5.90;;;;;;;;;;4942581;28;20033;-78
2022/11/07 06:09:03;;;;;;;30.73;6.43;;;;;;;;;;4946257;28;20832;-76
2022/11/07 06:11:29;;;;;;;35.78;8.20;;;;;;;;;;4947637;28;20029;-79
2022/11/07 06:13:58;;;;;;;35.45;7.18;;;;;;;;;;4952398;28;20956;-78
2022/11/07 06:16:26;;;;;;;28.88;5.70;;;;;;;;;;4957278;28;20030;-76
2022/11/07 06:18:59;;;;;;;33.33;6.45;;;;;;;;;;4968989;28;20335;-77
2022/11/07 06:21:27;;;;;;;34.38;10.10;;;;;;;;;;4966843;28;20297;-77
2022/11/07 06:23:56;;;;;;;36.05;7.57;;;;;;;;;;4947745;28;20212;-78
2022/11/07 06:26:23;;;;;;;36.05;7.05;;;;;;;;;;4954990;28;20107;-78
2022/11/07 06:28:49;;;;;;;34.20;7.05;;;;;;;;;;4941462;28;20751;-75
2022/11/07 06:31:14;;;;;;;31.20;7.97;;;;;;;;;;4960993;28;20038;-76
2022/11/07 06:33:43;;;;;;;36.08;9.73;;;;;;;;;;4956795;28;20498;-85
2022/11/07 06:36:11;;;;;;;36.92;10.55;;;;;;;;;;4974467;28;20468;-80
2022/11/07 06:38:39;;;;;;;39.08;9.25;;;;;;;;;;4986007;28;20049;-83
2022/11/07 06:41:05;;;;;;;24.10;7.10;;;;;;;;;;4976652;28;20025;-80
2022/11/07 06:43:31;;;;;;;39.35;10.82;;;;;;;;;;4960999;28;20105;-83
2022/11/07 06:45:56;;;;;;;41.83;10.80;;;;;;;;;;4962609;28;20562;-84
2022/11/07 06:48:22;;;;;;;53.70;12.73;;;;;;;;;;4932069;28;20727;-82
2022/11/07 06:50:54;;;;;;;45.22;12.18;;;;;;;;;;4938352;28;20025;-83
2022/11/07 06:53:20;;;;;;;43.75;13.73;;;;;;;;;;4948901;28;20510;-81
2022/11/07 06:55:45;;;;;;;56.03;14.32;;;;;;;;;;4971596;28;20080;-83
2022/11/07 06:58:11;;;;;;;53.33;12.65;;;;;;;;;;4968945;28;20127;-81
2022/11/07 07:00:36;;;;;;;35.45;9.15;;;;;;;;;;4956800;28;20054;-83
2022/11/07 07:03:02;;;;;;;37.75;9.93;;;;;;;;;;4972011;28;20309;-83
2022/11/07 07:05:31;;;;;;;38.33;8.52;;;;;;;;;;4950503;28;20041;-80
2022/11/07 07:07:59;;;;;;;30.55;9.10;;;;;;;;;;4982126;28;20037;-81
2022/11/07 07:10:26;;;;;;;40.40;10.82;;;;;;;;;;4968707;28;20057;-78
2022/11/07 07:12:52;;;;;;;38.85;10.77;;;;;;;;;;4933277;28;20041;-78
2022/11/07 07:15:20;;;;;;;44.65;13.35;;;;;;;;;;4970841;28;20040;-82
2022/11/07 07:17:48;;;;;;;36.78;10.70;;;;;;;;;;4951854;28;20304;-82
2022/11/07 07:20:14;;;;;;;44.08;11.27;;;;;;;;;;4954113;28;20203;-79
2022/11/07 07:22:42;;;;;;;43.17;10.82;;;;;;;;;;4959196;28;20302;-75
2022/11/07 07:25:08;;;;;;;31.17;6.35;;;;;;;;;;4950906;28;20041;-78
2022/11/07 07:27:37;;;;;;;33.78;6.40;;;;;;;;;;4948264;28;20545;-77
2022/11/07 07:30:02;;;;;;;31.00;7.47;;;;;;;;;;4963517;28;20034;-78
2022/11/07 07:32:33;;;;;;;40.97;10.48;;;;;;;;;;4922110;28;20038;-78
2022/11/07 07:34:59;;;;;;;28.95;8.93;;;;;;;;;;4961109;28;20269;-78
2022/11/07 07:37:28;;;;;;;33.72;6.88;;;;;;;;;;4927543;28;20269;-78
2022/11/07 07:39:55;;;;;;;34.08;7.85;;;;;;;;;;4934243;28;20435;-79
2022/11/07 07:42:21;;;;;;;33.95;7.80;;;;;;;;;;4937167;28;20065;-78
2022/11/07 07:44:46;;;;;;;37.90;6.20;;;;;;;;;;4931761;28;20604;-79
2022/11/07 07:47:13;;;;;;;31.63;5.57;;;;;;;;;;4944591;28;20062;-81
2022/11/07 07:49:38;;;;;;;31.92;5.00;;;;;;;;;;4954973;28;20049;-82
2022/11/07 07:52:04;;;;;;;36.30;5.80;;;;;;;;;;4915316;28;20049;-77
2022/11/07 07:54:30;;;;;;;39.80;5.90;;;;;;;;;;4972594;28;20041;-81
2022/11/07 07:56:56;;;;;;;44.03;6.55;;;;;;;;;;4944977;28;20042;-83
2022/11/07 07:59:21;;;;;;;33.15;6.05;;;;;;;;;;4972037;28;20192;-82
2022/11/07 08:01:47;;;;;;;36.88;5.43;;;;;;;;;;4958929;28;20046;-83
2022/11/07 08:04:12;;;;;;;29.90;5.03;;;;;;;;;;4945120;28;20073;-84
2022/11/07 08:06:38;;;;;;;29.83;5.22;;;;;;;;;;4948749;28;20045;-82
2022/11/07 08:09:04;;;;;;;37.17;6.07;;;;;;;;;;4928645;28;20038;-83
2022/11/07 08:11:30;;;;;;;29.05;5.10;;;;;;;;;;4954544;28;20207;-83
2022/11/07 08:13:55;;;;;;;36.97;5.65;;;;;;;;;;4951062;28;20037;-82
2022/11/07 08:16:21;;;;;;;36.15;5.80;;;;;;;;;;4948235;28;20375;-82
2022/11/07 08:18:49;;;;;;;40.80;6.65;;;;;;;;;;4947903;28;20538;-83
2022/11/07 08:21:14;;;;;;;28.48;4.95;;;;;;;;;;4928507;28;20164;-81
2022/11/07 08:23:40;;;;;;;29.90;4.97;;;;;;;;;;4959691;28;20529;-85
2022/11/07 08:26:08;;;;;;;36.10;6.78;;;;;;;;;;4921280;28;20069;-82
2022/11/07 08:28:36;;;;;;;32.17;5.28;;;;;;;;;;4936097;28;20038;-82
2022/11/07 08:31:13;;;;;;;24.02;4.28;;;;;;;;;;4928405;28;20404;-82
2022/11/07 08:33:39;;;;;;;28.48;5.03;;;;;;;;;;4954330;28;20038;-82
2022/11/07 08:36:05;;;;;;;32.50;5.57;;;;;;;;;;4953878;28;20038;-83
2022/11/07 08:38:32;;;;;;;29.45;5.25;;;;;;;;;;4950584;28;20041;-81
2022/11/07 08:40:59;;;;;;;29.67;5.63;;;;;;;;;;4904934;28;21810;-84
2022/11/07 08:43:25;;;;;;;53.88;6.78;;;;;;;;;;4943637;28;20495;-83
2022/11/07 08:45:53;;;;;;;29.13;5.63;;;;;;;;;;4936230;28;20379;-83
2022/11/07 08:48:19;;;;;;;28.65;6.03;;;;;;;;;;4939259;28;20035;-82
2022/11/07 08:50:44;;;;;;;26.23;5.05;;;;;;;;;;4942176;28;20423;-78
2022/11/07 08:53:10;;;;;;;32.38;5.47;;;;;;;;;;4943426;28;20510;-78
2022/11/07 08:55:36;;;;;;;36.85;6.28;;;;;;;;;;4924944;28;20148;-79
2022/11/07 08:58:05;;;;;;;31.98;6.18;;;;;;;;;;4908103;28;20460;-79
2022/11/07 09:00:35;;;;;;;33.63;5.03;;;;;;;;;;4925945;28;20232;-78
2022/11/07 09:03:04;;;;;;;27.10;5.18;;;;;;;;;;4939198;28;20308;-77
2022/11/07 09:05:33;;;;;;;27.90;5.05;;;;;;;;;;4932516;28;20206;-78
2022/11/07 09:08:01;;;;;;;23.48;6.28;;;;;;;;;;4947155;28;20038;-80
2022/11/07 09:10:27;;;;;;;31.90;5.95;;;;;;;;;;4946161;28;20142;-79
2022/11/07 09:12:53;;;;;;;24.33;4.88;;;;;;;;;;4961405;28;20415;-78
2022/11/07 09:15:19;;;;;;;30.48;6.03;;;;;;;;;;4914589;28;20085;-78
2022/11/07 09:17:49;;;;;;;37.90;6.72;;;;;;;;;;4917561;28;20111;-78
2022/11/07 09:20:20;;;;;;;30.60;5.72;;;;;;;;;;4954621;28;20046;-82
2022/11/07 09:23:03;;;;;;;25.48;4.97;;;;;;;;;;4953757;28;20133;-85
2022/11/07 09:25:28;;;;;;;25.17;5.57;;;;;;;;;;4886047;28;20249;-82
2022/11/07 09:27:54;;;;;;;23.15;4.30;;;;;;;;;;4935290;28;20039;-83
2022/11/07 09:30:26;;;;;;;24.75;5.45;;;;;;;;;;4933419;28;20702;-82
2022/11/07 09:32:59;;;;;;;26.05;5.53;;;;;;;;;;4937156;28;20052;-84
2022/11/07 09:35:27;;;;;;;25.10;4.68;;;;;;;;;;4929179;28;20144;-80
2022/11/07 09:37:55;;;;;;;30.08;5.55;;;;;;;;;;4900140;28;20722;-81
2022/11/07 09:40:27;;;;;;;29.10;4.78;;;;;;;;;;4958165;28;20034;-80
2022/11/07 09:43:02;;;;;;;27.50;5.90;;;;;;;;;;4932698;28;20042;-80
2022/11/07 09:45:29;;;;;;;27.50;5.10;;;;;;;;;;4957376;28;20751;-78
2022/11/07 09:48:01;;;;;;;22.42;5.00;;;;;;;;;;4937374;28;20938;-82
2022/11/07 09:50:40;;;;;;;26.67;5.30;;;;;;;;;;4947048;28;20924;-83
2022/11/07 09:53:16;;;;;;;23.58;5.03;;;;;;;;;;4942333;28;20052;-81
2022/11/07 09:55:56;;;;;;;26.75;4.95;;;;;;;;;;4979512;28;20155;-78
2022/11/07 09:58:26;;;;;;;25.08;5.28;;;;;;;;;;4979130;28;20038;-83
2022/11/07 10:00:52;;;;;;;26.13;4.85;;;;;;;;;;4952278;28;20080;-82
2022/11/07 10:03:19;;;;;;;20.58;4.63;;;;;;;;;;4979924;28;20046;-83
2022/11/07 10:05:49;;;;;;;27.25;5.18;;;;;;;;;;4949218;28;20525;-81
2022/11/07 10:08:43;;;;;;;26.40;5.40;;;;;;;;;;4950370;28;20923;-81
2022/11/07 10:11:15;;;;;;;27.80;5.47;;;;;;;;;;4905688;28;20501;-83
2022/11/07 10:13:53;;;;;;;31.25;5.88;;;;;;;;;;4940622;28;20473;-85
2022/11/07 10:16:19;;;;;;;25.40;5.65;;;;;;;;;;4958011;28;20060;-81
2022/11/07 10:18:52;;;;;;;23.73;4.90;;;;;;;;;;4957007;28;20121;-82
2022/11/07 10:21:23;;;;;;;22.67;5.20;;;;;;;;;;4965479;28;20065;-83
2022/11/07 10:23:48;;;;;;;25.35;5.20;;;;;;;;;;4976581;28;20035;-81
2022/11/07 10:26:18;;;;;;;29.77;5.40;;;;;;;;;;4967342;28;20416;-81
2022/11/07 10:28:51;;;;;;;23.65;4.78;;;;;;;;;;4977895;28;20434;-82
2022/11/07 10:31:17;;;;;;;25.02;4.88;;;;;;;;;;4977547;28;20034;-83
2022/11/07 10:33:47;;;;;;;23.55;5.35;;;;;;;;;;4914805;28;20034;-82
2022/11/07 10:36:19;;;;;;;27.27;4.88;;;;;;;;;;4965296;28;20113;-82
2022/11/07 10:38:46;;;;;;;18.73;4.82;;;;;;;;;;4954660;28;20451;-79
2022/11/07 10:41:18;;;;;;;26.77;4.53;;;;;;;;;;4978865;28;20509;-80
2022/11/07 10:43:45;;;;;;;22.45;4.65;;;;;;;;;;4949164;28;20030;-81
2022/11/07 10:46:17;;;;;;;27.13;5.82;;;;;;;;;;4955304;28;20075;-78
2022/11/07 10:48:55;;;;;;;29.25;6.20;;;;;;;;;;4941074;28;20098;-78
2022/11/07 10:51:36;;;;;;;25.05;4.93;;;;;;;;;;4934812;28;20110;-78
2022/11/07 10:54:02;;;;;;;27.40;4.97;;;;;;;;;;4948364;28;20334;-78
2022/11/07 10:56:27;;;;;;;37.03;5.30;;;;;;;;;;4971451;28;20601;-83
2022/11/07 10:58:56;;;;;;;20.58;5.38;;;;;;;;;;4934755;28;20041;-83
2022/11/07 11:01:23;;;;;;;32.05;5.82;;;;;;;;;;4974944;28;20347;-80
2022/11/07 11:03:52;;;;;;;33.20;7.32;;;;;;;;;;4970299;28;20610;-82
2022/11/07 11:06:22;;;;;;;26.58;5.40;;;;;;;;;;4964962;28;20104;-79
2022/11/07 11:08:49;;;;;;;24.15;5.60;;;;;;;;;;4973014;28;20486;-81
2022/11/07 11:11:20;;;;;;;30.25;6.88;;;;;;;;;;4990505;28;20041;-81
2022/11/07 11:13:46;;;;;;;29.25;8.18;;;;;;;;;;4965993;28;20038;-81
2022/11/07 11:16:16;;;;;;;31.98;9.50;;;;;;;;;;4965048;28;20557;-83
2022/11/07 11:18:49;;;;;;;27.10;5.57;;;;;;;;;;4966732;28;20030;-81
2022/11/07 11:21:14;;;;;;;29.38;7.00;;;;;;;;;;4963530;28;20041;-81
2022/11/07 11:23:43;;;;;;;33.20;8.30;;;;;;;;;;4944456;28;20201;-78
2022/11/07 11:26:22;;;;;;;27.08;4.78;;;;;;;;;;4961800;28;20046;-76
2022/11/07 11:28:50;;;;;;;23.65;4.82;;;;;;;;;;4960142;28;20038;-78
2022/11/07 11:31:19;;;;;;;23.48;4.45;;;;;;;;;;4962725;28;20104;-78
2022/11/07 11:34:27;;;;;;;24.10;4.82;;;;;;;;;;4945668;28;20481;-78
2022/11/07 11:37:23;;;;;;;27.60;6.15;;;;;;;;;;4907311;28;20114;-79
2022/11/07 11:39:57;;;;;;;29.10;6.68;;;;;;;;;;4959718;28;20302;-78
2022/11/07 11:42:41;;;;;;;28.13;7.28;;;;;;;;;;4953005;28;20088;-78
2022/11/07 11:45:14;;;;;;;30.90;8.13;;;;;;;;;;4948382;28;20511;-78
2022/11/07 11:47:44;;;;;;;31.42;7.60;;;;;;;;;;4959562;28;20280;-77
2022/11/07 11:50:18;;;;;;;33.45;7.03;;;;;;;;;;4941329;28;21857;-79
2022/11/07 11:52:46;;;;;;;29.55;8.75;;;;;;;;;;4964223;28;20321;-80
2022/11/07 11:55:16;;;;;;;25.48;6.03;;;;;;;;;;4941468;28;20136;-78
2022/11/07 11:57:41;;;;;;;34.10;10.82;;;;;;;;;;4931948;28;20223;-78
2022/11/07 12:00:15;;;;;;;40.78;11.20;;;;;;;;;;4955622;28;20570;-78
2022/11/07 12:02:59;;;;;;;40.80;10.18;;;;;;;;;;4956845;28;20425;-79
2022/11/07 12:05:46;;;;;;;36.47;10.00;;;;;;;;;;4938831;28;20125;-79
2022/11/07 12:08:24;;;;;;;35.55;12.00;;;;;;;;;;4928677;28;20105;-78
2022/11/07 12:10:49;;;;;;;30.35;10.57;;;;;;;;;;4927907;28;20518;-78
2022/11/07 12:13:18;;;;;;;30.48;10.50;;;;;;;;;;4920893;28;20034;-78
2022/11/07 12:15:56;;;;;;;34.33;9.48;;;;;;;;;;4887711;28;20328;-79
2022/11/07 12:18:29;;;;;;;35.28;10.40;;;;;;;;;;4955167;28;20313;-81
2022/11/07 12:21:16;;;;;;;33.28;7.28;;;;;;;;;;4887890;28;20555;-82
2022/11/07 12:23:50;;;;;;;27.27;6.30;;;;;;;;;;4918111;28;20030;-81
2022/11/07 12:26:36;;;;;;;35.63;6.60;;;;;;;;;;4887318;28;20046;-82
2022/11/07 12:29:11;;;;;;;30.13;6.25;;;;;;;;;;4929904;28;20422;-82
2022/11/07 12:31:48;;;;;;;28.90;6.10;;;;;;;;;;4938906;28;20041;-81
2022/11/07 12:34:33;;;;;;;28.58;7.50;;;;;;;;;;4957447;28;20371;-83
2022/11/07 12:37:25;;;;;;;27.38;7.35;;;;;;;;;;4934113;28;20064;-83
2022/11/07 12:39:50;;;;;;;30.98;8.05;;;;;;;;;;4919557;28;20046;-83
2022/11/07 12:42:24;;;;;;;24.52;5.38;;;;;;;;;;4933684;28;21912;-83
2022/11/07 12:44:54;;;;;;;25.33;7.00;;;;;;;;;;4927059;28;21843;-82
2022/11/07 12:47:25;;;;;;;28.92;7.20;;;;;;;;;;4925743;28;20286;-82
2022/11/07 12:50:15;;;;;;;20.98;8.10;;;;;;;;;;4931270;28;20040;-80
2022/11/07 12:52:59;;;;;;;28.25;7.85;;;;;;;;;;4933897;28;20030;-80
2022/11/07 12:55:35;;;;;;;26.98;7.07;;;;;;;;;;4953742;28;20041;-79
2022/11/07 12:58:02;;;;;;;26.42;6.20;;;;;;;;;;4939987;28;28745;-80
2022/11/07 13:00:28;;;;;;;30.73;7.68;;;;;;;;;;4926572;28;20472;-80
2022/11/07 13:02:54;;;;;;;28.77;7.30;;;;;;;;;;4940559;28;20061;-76
2022/11/07 13:05:38;;;;;;;34.60;9.00;;;;;;;;;;4955851;28;20049;-79
2022/11/07 13:08:09;;;;;;;31.48;9.07;;;;;;;;;;4927504;28;20333;-75
2022/11/07 13:10:53;;;;;;;35.13;11.10;;;;;;;;;;4954103;28;20034;-77
2022/11/07 13:13:31;;;;;;;35.40;10.07;;;;;;;;;;4929861;28;20077;-76
2022/11/07 13:16:16;;;;;;;35.80;10.02;;;;;;;;;;4968788;28;20025;-83
2022/11/07 13:18:43;;;;;;;30.45;9.70;;;;;;;;;;4922169;28;20300;-81
2022/11/07 13:21:10;;;;;;;35.72;10.73;;;;;;;;;;4968845;28;20041;-80
2022/11/07 13:23:36;;;;;;;32.58;9.52;;;;;;;;;;4966417;28;20030;-80
2022/11/07 13:26:05;;;;;;;35.30;8.93;;;;;;;;;;4975311;28;20352;-80
2022/11/07 13:28:37;;;;;;;34.70;10.60;;;;;;;;;;4972989;28;20030;-81
2022/11/07 13:31:05;;;;;;;31.48;9.73;;;;;;;;;;4981775;28;20056;-78
2022/11/07 13:33:32;;;;;;;32.13;9.00;;;;;;;;;;4983585;28;20613;-79
2022/11/07 13:35:58;;;;;;;34.63;9.60;;;;;;;;;;4964252;28;20038;-80
2022/11/07 13:38:30;;;;;;;34.25;8.80;;;;;;;;;;4963086;28;20137;-81
2022/11/07 13:40:57;;;;;;;;;;;;;;;;;;4977930;28;20041;-81
2022/11/07 13:43:37;;;;;;;39.15;9.63;;;;;;;;;;4976007;28;19924;-81
2022/11/07 13:46:07;;;;;;;49.63;10.35;;;;;;;;;;4972163;28;20041;-82
2022/11/07 13:48:58;;;;;;;42.80;9.10;;;;;;;;;;4941890;28;20696;-80
2022/11/07 13:51:34;;;;;;;29.70;8.07;;;;;;;;;;4935861;28;20048;-81
2022/11/07 13:54:08;;;;;;;33.75;8.05;;;;;;;;;;4969396;28;20153;-78
2022/11/07 13:56:54;;;;;;;30.77;7.60;;;;;;;;;;4966322;28;22500;-75
2022/11/07 13:59:29;;;;;;;24.33;6.53;;;;;;;;;;4963299;28;20476;-78
2022/11/07 14:01:57;;;;;;;22.42;7.50;;;;;;;;;;4941487;28;20186;-77
2022/11/07 14:04:27;;;;;;;35.17;15.45;;;;;;;;;;4952443;28;20078;-78
2022/11/07 14:06:55;;;;;;;25.67;9.07;;;;;;;;;;4959391;28;20042;-79
2022/11/07 14:09:21;;;;;;;21.25;7.25;;;;;;;;;;4964949;28;20344;-77
2022/11/07 14:11:50;;;;;;;26.08;8.25;;;;;;;;;;4960918;28;20076;-77
2022/11/07 14:14:16;;;;;;;22.10;7.57;;;;;;;;;;4960975;28;20033;-77
2022/11/07 14:16:45;;;;;;;22.83;8.48;;;;;;;;;;4962443;28;20383;-76
2022/11/07 14:19:15;;;;;;;28.55;8.98;;;;;;;;;;4962412;28;20630;-78
2022/11/07 14:21:43;;;;;;;27.70;9.95;;;;;;;;;;4963456;28;20536;-76
2022/11/07 14:24:25;;;;;;;26.55;8.98;;;;;;;;;;4934362;28;20031;-78
2022/11/07 14:26:52;;;;;;;;;;;;;;;;;;4948384;28;20037;-79
2022/11/07 14:29:21;;;;;;;24.90;7.75;;;;;;;;;;4943762;28;19917;-78
2022/11/07 14:31:50;;;;;;;24.95;9.10;;;;;;;;;;4923894;28;20030;-85
2022/11/07 14:34:19;;;;;;;29.27;9.05;;;;;;;;;;4920450;28;20106;-85
2022/11/07 14:36:49;;;;;;;27.27;8.40;;;;;;;;;;4941444;28;20034;-85
2022/11/07 14:39:21;;;;;;;33.45;10.82;;;;;;;;;;4950956;28;20267;-79
2022/11/07 14:41:47;;;;;;;26.65;10.20;;;;;;;;;;4957246;28;20152;-79
2022/11/07 14:44:17;;;;;;;32.33;11.30;;;;;;;;;;4928207;28;20045;-78
2022/11/07 14:46:51;;;;;;;37.42;11.10;;;;;;;;;;4936485;28;20041;-79
2022/11/07 14:49:25;;;;;;;24.42;8.98;;;;;;;;;;4908176;28;20732;-78
2022/11/07 14:51:51;;;;;;;29.27;9.80;;;;;;;;;;4921541;28;20045;-78